Aeroporto :
LOGIN :

Iscrizione | Disclaimer

   EN    FR    IT 

 










Sommario :    VFR   VFR Marginale   IFR   IFR Intensivo   IFR Molto Intensivo
Visibilità : 
Base nubi : 
>= 8 km
>= 3000ft
5 / 8 km
1000 / 3000 ft
1500m / 5 km
500 / 1000 ft
800 / 1500m
200 / 500 ft
< 800m
< 200 ft
Simboli :   Temporali  Nebbia  Neve Forte  Precipitazioni Forti  Vento > 20 kt
SIGMETs :   Varie  Temporali  Ghiacco  Turbolenza  Onda orograficha  Ceneri Vulcaniche







- Altitudine del aeroporto : 1674 ft
- Codice IATA : BRN


LSZB - Bern Belp

ULTIMO METAR :
  • 260550Z 00000KT 9999 RA SCT017 BKN028 05/04 Q1015 NOSIG

METARs OBSOLETI :
  • 260520Z 00000KT 9999 -RA SCT015 BKN031 05/04 Q1015 NOSIG
  • 260450Z VRB02KT 9999 -RA FEW014 SCT035 BKN040 05/04 Q1015 NOSIG
  • 260420Z VRB03KT 9999 -RA FEW015 BKN030 05/04 Q1014 NOSIG
  • 260350Z AUTO 04004KT 360V070 9999 -RA FEW015 BKN031 05/03 Q1014
  • 260320Z AUTO VRB02KT 9999 -RA SCT016 BKN032 05/03 Q1014
  • 260250Z AUTO VRB06KT 9999 RA FEW016 SCT026 BKN031 06/04 Q1014

TAF TAF LSZB
Valido dal 26 a 06 ore il 26 a 15 ore UTC


260525Z 2606/2615 VRB03KT 9999 -RA FEW014 SCT030 BKN040
TEMPO 2606/2610 4500 RA
PROB40
TEMPO 2611/2615 31012G25KT 4500 SHRA FEW030TCU
PROB30
TEMPO 2613/2615 4500 TSRA FEW030CB
ATIS : +41 22 417 40 76
Nessun NOTAM noto per questo aeroporto.
2 SIGMETs conosciuti per la FIR Switzerland (LSAS) :
 
Turbolenza severa
LSAS SIGMET 3 VALID 260550/260750 LSZH
LSAS SWITZERLAND FIR SEV TURB OBS WI N4632 E00740 - N4618 E00816 - N4557 E00805 - N4550 E00704 - N4611 E00643 - N4632 E00740 FL200/300 STNR WKN=
Temporali affogati
LSAS SIGMET 2 VALID 260445/260645 LSZH
LSAS SWITZERLAND FIR EMBD TS OBS WI N4641 E00836 - N4635 E00933 - N4545 E00902 - N4618 E00815 - N4641 E00836 TOP FL240 STNR NC=



MetMap, La meteo Aeronautica in un colpo d'occhio ! - Copyright ORBIFLY Dicembre 2007 - Disclaimer

ORBIFLY MET'MAP TEAM :

Programmazione e sviluppo : Alexandra Zaïnal
Concezione e sviluppo : Baudouin d'Aumeries
Co-Programmazione e sviluppo : Marc-Olivier Méhu
Supporto tecnico e logistico : Manuel Goepfert
Aiuto per la traduzione : Arnaldo La Scala

Contatto : metmap@orbifly.com




FONTI E CREDITI :

   NOAA